sensor_id;sensor_type;location;lat;lon;timestamp;P1;durP1;ratioP1;P2;durP2;ratioP2
33830;SDS011;20137;48.834;8.732;2023-03-20T00:00:29;1.23;;;0.85;;
33830;SDS011;20137;48.834;8.732;2023-03-20T00:02:58;0.82;;;0.82;;
33830;SDS011;20137;48.834;8.732;2023-03-20T00:05:24;0.95;;;0.90;;
33830;SDS011;20137;48.834;8.732;2023-03-20T00:07:52;1.05;;;0.70;;
33830;SDS011;20137;48.834;8.732;2023-03-20T00:10:19;0.70;;;0.70;;
33830;SDS011;20137;48.834;8.732;2023-03-20T00:12:46;2.40;;;0.70;;
33830;SDS011;20137;48.834;8.732;2023-03-20T00:15:17;1.13;;;0.88;;
33830;SDS011;20137;48.834;8.732;2023-03-20T00:17:44;1.17;;;0.90;;
33830;SDS011;20137;48.834;8.732;2023-03-20T00:20:13;1.20;;;0.85;;
33830;SDS011;20137;48.834;8.732;2023-03-20T00:22:40;2.38;;;0.82;;
33830;SDS011;20137;48.834;8.732;2023-03-20T00:25:06;1.42;;;0.80;;
33830;SDS011;20137;48.834;8.732;2023-03-20T00:27:33;1.10;;;0.80;;
33830;SDS011;20137;48.834;8.732;2023-03-20T00:29:59;1.50;;;0.85;;
33830;SDS011;20137;48.834;8.732;2023-03-20T00:32:25;2.28;;;0.70;;
33830;SDS011;20137;48.834;8.732;2023-03-20T00:34:50;1.10;;;0.73;;
33830;SDS011;20137;48.834;8.732;2023-03-20T00:37:16;0.85;;;0.60;;
33830;SDS011;20137;48.834;8.732;2023-03-20T00:39:41;1.45;;;0.60;;
33830;SDS011;20137;48.834;8.732;2023-03-20T00:42:08;0.75;;;0.60;;
33830;SDS011;20137;48.834;8.732;2023-03-20T00:44:54;0.85;;;0.40;;
33830;SDS011;20137;48.834;8.732;2023-03-20T00:47:23;0.52;;;0.52;;
33830;SDS011;20137;48.834;8.732;2023-03-20T00:49:50;1.75;;;0.70;;
33830;SDS011;20137;48.834;8.732;2023-03-20T00:52:18;1.50;;;0.55;;
33830;SDS011;20137;48.834;8.732;2023-03-20T00:54:44;0.63;;;0.52;;
33830;SDS011;20137;48.834;8.732;2023-03-20T00:57:15;0.50;;;0.50;;
33830;SDS011;20137;48.834;8.732;2023-03-20T01:02:45;0.90;;;0.50;;
33830;SDS011;20137;48.834;8.732;2023-03-20T01:05:11;1.05;;;0.80;;
33830;SDS011;20137;48.834;8.732;2023-03-20T01:07:37;0.60;;;0.57;;
33830;SDS011;20137;48.834;8.732;2023-03-20T01:10:04;0.98;;;0.47;;
33830;SDS011;20137;48.834;8.732;2023-03-20T01:12:31;0.80;;;0.70;;
33830;SDS011;20137;48.834;8.732;2023-03-20T01:14:57;0.63;;;0.60;;
33830;SDS011;20137;48.834;8.732;2023-03-20T01:17:24;0.70;;;0.50;;
33830;SDS011;20137;48.834;8.732;2023-03-20T01:19:51;1.65;;;0.80;;
33830;SDS011;20137;48.834;8.732;2023-03-20T01:22:16;1.40;;;0.40;;
33830;SDS011;20137;48.834;8.732;2023-03-20T01:24:42;2.88;;;0.70;;
33830;SDS011;20137;48.834;8.732;2023-03-20T01:27:15;1.00;;;0.60;;
33830;SDS011;20137;48.834;8.732;2023-03-20T01:29:43;0.98;;;0.60;;
33830;SDS011;20137;48.834;8.732;2023-03-20T01:32:13;0.57;;;0.47;;
33830;SDS011;20137;48.834;8.732;2023-03-20T01:34:40;1.50;;;1.00;;
33830;SDS011;20137;48.834;8.732;2023-03-20T01:37:08;1.30;;;0.90;;
33830;SDS011;20137;48.834;8.732;2023-03-20T01:39:38;1.13;;;0.80;;
33830;SDS011;20137;48.834;8.732;2023-03-20T01:42:04;1.60;;;1.13;;
33830;SDS011;20137;48.834;8.732;2023-03-20T01:44:32;1.75;;;1.23;;
33830;SDS011;20137;48.834;8.732;2023-03-20T01:47:00;1.65;;;1.17;;
33830;SDS011;20137;48.834;8.732;2023-03-20T01:51:54;2.88;;;1.60;;
33830;SDS011;20137;48.834;8.732;2023-03-20T01:54:33;3.42;;;1.17;;
33830;SDS011;20137;48.834;8.732;2023-03-20T01:59:33;1.88;;;1.25;;
33830;SDS011;20137;48.834;8.732;2023-03-20T02:02:08;3.05;;;1.58;;
33830;SDS011;20137;48.834;8.732;2023-03-20T02:04:40;2.50;;;1.38;;
33830;SDS011;20137;48.834;8.732;2023-03-20T02:07:09;2.00;;;1.33;;
33830;SDS011;20137;48.834;8.732;2023-03-20T02:09:36;4.43;;;1.80;;
33830;SDS011;20137;48.834;8.732;2023-03-20T02:12:02;6.07;;;1.55;;
33830;SDS011;20137;48.834;8.732;2023-03-20T02:14:29;2.95;;;1.48;;
33830;SDS011;20137;48.834;8.732;2023-03-20T02:16:56;3.60;;;1.40;;
33830;SDS011;20137;48.834;8.732;2023-03-20T02:19:36;2.30;;;1.50;;
33830;SDS011;20137;48.834;8.732;2023-03-20T02:39:42;2.65;;;1.58;;
33830;SDS011;20137;48.834;8.732;2023-03-20T02:42:24;2.50;;;1.58;;
33830;SDS011;20137;48.834;8.732;2023-03-20T02:48:00;3.67;;;1.50;;
33830;SDS011;20137;48.834;8.732;2023-03-20T03:01:16;2.80;;;1.75;;
33830;SDS011;20137;48.834;8.732;2023-03-20T03:06:24;3.10;;;1.67;;
33830;SDS011;20137;48.834;8.732;2023-03-20T03:09:00;2.25;;;1.60;;
33830;SDS011;20137;48.834;8.732;2023-03-20T03:11:31;5.63;;;1.67;;
33830;SDS011;20137;48.834;8.732;2023-03-20T03:14:00;4.22;;;1.63;;
33830;SDS011;20137;48.834;8.732;2023-03-20T03:16:29;2.70;;;1.33;;
33830;SDS011;20137;48.834;8.732;2023-03-20T03:21:34;3.25;;;1.40;;
33830;SDS011;20137;48.834;8.732;2023-03-20T03:24:03;1.58;;;1.40;;
33830;SDS011;20137;48.834;8.732;2023-03-20T03:26:31;2.47;;;1.60;;
33830;SDS011;20137;48.834;8.732;2023-03-20T03:29:12;2.75;;;1.83;;
33830;SDS011;20137;48.834;8.732;2023-03-20T03:31:41;1.88;;;1.45;;
33830;SDS011;20137;48.834;8.732;2023-03-20T03:34:10;2.63;;;1.48;;
33830;SDS011;20137;48.834;8.732;2023-03-20T03:42:24;2.10;;;1.50;;
33830;SDS011;20137;48.834;8.732;2023-03-20T03:45:03;4.97;;;2.22;;
33830;SDS011;20137;48.834;8.732;2023-03-20T03:50:28;3.53;;;1.88;;
33830;SDS011;20137;48.834;8.732;2023-03-20T03:53:17;4.57;;;2.28;;
33830;SDS011;20137;48.834;8.732;2023-03-20T03:55:49;3.00;;;1.83;;
33830;SDS011;20137;48.834;8.732;2023-03-20T03:58:30;3.90;;;2.30;;
33830;SDS011;20137;48.834;8.732;2023-03-20T04:01:01;5.55;;;2.70;;
33830;SDS011;20137;48.834;8.732;2023-03-20T04:03:29;3.17;;;2.17;;
33830;SDS011;20137;48.834;8.732;2023-03-20T04:05:59;4.53;;;2.55;;
33830;SDS011;20137;48.834;8.732;2023-03-20T04:08:28;3.33;;;2.20;;
33830;SDS011;20137;48.834;8.732;2023-03-20T04:10:54;4.35;;;2.63;;
33830;SDS011;20137;48.834;8.732;2023-03-20T04:13:19;4.00;;;2.65;;
33830;SDS011;20137;48.834;8.732;2023-03-20T04:15:45;4.70;;;2.75;;
33830;SDS011;20137;48.834;8.732;2023-03-20T04:18:15;4.82;;;2.80;;
33830;SDS011;20137;48.834;8.732;2023-03-20T04:20:42;4.90;;;2.72;;
33830;SDS011;20137;48.834;8.732;2023-03-20T04:23:08;3.60;;;2.55;;
33830;SDS011;20137;48.834;8.732;2023-03-20T04:25:34;5.18;;;2.60;;
33830;SDS011;20137;48.834;8.732;2023-03-20T04:27:59;4.88;;;2.50;;
33830;SDS011;20137;48.834;8.732;2023-03-20T04:30:25;5.15;;;2.65;;
33830;SDS011;20137;48.834;8.732;2023-03-20T04:32:51;3.65;;;2.05;;
33830;SDS011;20137;48.834;8.732;2023-03-20T04:35:17;2.83;;;2.03;;
33830;SDS011;20137;48.834;8.732;2023-03-20T04:37:43;3.28;;;2.40;;
33830;SDS011;20137;48.834;8.732;2023-03-20T04:40:09;3.20;;;2.15;;
33830;SDS011;20137;48.834;8.732;2023-03-20T04:42:35;2.25;;;1.60;;
33830;SDS011;20137;48.834;8.732;2023-03-20T04:45:00;2.75;;;1.92;;
33830;SDS011;20137;48.834;8.732;2023-03-20T04:47:26;5.38;;;1.80;;
33830;SDS011;20137;48.834;8.732;2023-03-20T04:49:51;3.22;;;2.05;;
33830;SDS011;20137;48.834;8.732;2023-03-20T04:52:17;3.33;;;2.17;;
33830;SDS011;20137;48.834;8.732;2023-03-20T04:54:43;4.22;;;2.58;;
33830;SDS011;20137;48.834;8.732;2023-03-20T04:57:08;4.25;;;2.10;;
33830;SDS011;20137;48.834;8.732;2023-03-20T04:59:34;2.55;;;2.10;;
33830;SDS011;20137;48.834;8.732;2023-03-20T05:01:59;2.38;;;1.77;;
33830;SDS011;20137;48.834;8.732;2023-03-20T05:04:25;3.30;;;2.03;;
33830;SDS011;20137;48.834;8.732;2023-03-20T05:06:51;2.92;;;1.90;;
33830;SDS011;20137;48.834;8.732;2023-03-20T05:09:17;2.67;;;1.80;;
33830;SDS011;20137;48.834;8.732;2023-03-20T05:11:43;3.30;;;2.38;;
33830;SDS011;20137;48.834;8.732;2023-03-20T05:14:08;2.95;;;2.28;;
33830;SDS011;20137;48.834;8.732;2023-03-20T05:16:35;2.42;;;1.88;;
33830;SDS011;20137;48.834;8.732;2023-03-20T05:19:01;2.55;;;1.83;;
33830;SDS011;20137;48.834;8.732;2023-03-20T05:21:27;4.07;;;1.90;;
33830;SDS011;20137;48.834;8.732;2023-03-20T05:23:53;5.55;;;2.40;;
33830;SDS011;20137;48.834;8.732;2023-03-20T05:26:19;2.83;;;2.00;;
33830;SDS011;20137;48.834;8.732;2023-03-20T05:28:44;3.08;;;2.25;;
33830;SDS011;20137;48.834;8.732;2023-03-20T05:31:10;3.00;;;1.70;;
33830;SDS011;20137;48.834;8.732;2023-03-20T05:33:36;3.55;;;2.28;;
33830;SDS011;20137;48.834;8.732;2023-03-20T05:36:02;3.00;;;1.80;;
33830;SDS011;20137;48.834;8.732;2023-03-20T05:38:28;3.55;;;2.17;;
33830;SDS011;20137;48.834;8.732;2023-03-20T05:40:57;3.20;;;1.90;;
33830;SDS011;20137;48.834;8.732;2023-03-20T05:43:23;3.83;;;2.25;;
33830;SDS011;20137;48.834;8.732;2023-03-20T05:45:49;3.33;;;2.10;;
33830;SDS011;20137;48.834;8.732;2023-03-20T05:48:15;4.05;;;2.20;;
33830;SDS011;20137;48.834;8.732;2023-03-20T05:50:41;2.60;;;1.75;;
33830;SDS011;20137;48.834;8.732;2023-03-20T05:53:06;3.53;;;2.25;;
33830;SDS011;20137;48.834;8.732;2023-03-20T05:55:32;2.20;;;1.80;;
33830;SDS011;20137;48.834;8.732;2023-03-20T05:57:58;2.40;;;1.90;;
33830;SDS011;20137;48.834;8.732;2023-03-20T06:00:23;3.08;;;2.00;;
33830;SDS011;20137;48.834;8.732;2023-03-20T06:02:49;2.83;;;2.25;;
33830;SDS011;20137;48.834;8.732;2023-03-20T06:05:15;3.45;;;2.33;;
33830;SDS011;20137;48.834;8.732;2023-03-20T06:07:42;3.50;;;2.53;;
33830;SDS011;20137;48.834;8.732;2023-03-20T06:10:08;2.95;;;2.28;;
33830;SDS011;20137;48.834;8.732;2023-03-20T06:12:34;3.40;;;2.47;;
33830;SDS011;20137;48.834;8.732;2023-03-20T06:15:00;2.92;;;2.20;;
33830;SDS011;20137;48.834;8.732;2023-03-20T06:17:25;2.90;;;1.80;;
33830;SDS011;20137;48.834;8.732;2023-03-20T06:19:51;2.25;;;1.70;;
33830;SDS011;20137;48.834;8.732;2023-03-20T06:22:16;5.13;;;3.58;;
33830;SDS011;20137;48.834;8.732;2023-03-20T06:24:42;4.30;;;3.20;;
33830;SDS011;20137;48.834;8.732;2023-03-20T06:27:08;3.33;;;2.63;;
33830;SDS011;20137;48.834;8.732;2023-03-20T06:29:33;3.78;;;2.33;;
33830;SDS011;20137;48.834;8.732;2023-03-20T06:31:59;3.10;;;1.85;;
33830;SDS011;20137;48.834;8.732;2023-03-20T06:34:25;4.25;;;3.30;;
33830;SDS011;20137;48.834;8.732;2023-03-20T06:36:51;3.20;;;2.67;;
33830;SDS011;20137;48.834;8.732;2023-03-20T06:39:17;2.53;;;2.13;;
33830;SDS011;20137;48.834;8.732;2023-03-20T06:41:43;2.72;;;2.05;;
33830;SDS011;20137;48.834;8.732;2023-03-20T06:44:08;3.42;;;2.28;;
33830;SDS011;20137;48.834;8.732;2023-03-20T06:46:34;3.05;;;2.10;;
33830;SDS011;20137;48.834;8.732;2023-03-20T06:49:00;2.70;;;1.83;;
33830;SDS011;20137;48.834;8.732;2023-03-20T06:51:25;2.40;;;1.92;;
33830;SDS011;20137;48.834;8.732;2023-03-20T06:53:51;2.03;;;1.42;;
33830;SDS011;20137;48.834;8.732;2023-03-20T06:56:17;2.50;;;1.65;;
33830;SDS011;20137;48.834;8.732;2023-03-20T06:58:43;1.95;;;1.50;;
33830;SDS011;20137;48.834;8.732;2023-03-20T07:01:09;2.10;;;1.58;;
33830;SDS011;20137;48.834;8.732;2023-03-20T07:03:40;3.00;;;2.20;;
33830;SDS011;20137;48.834;8.732;2023-03-20T07:06:06;2.72;;;1.90;;
33830;SDS011;20137;48.834;8.732;2023-03-20T07:08:33;3.88;;;1.85;;
33830;SDS011;20137;48.834;8.732;2023-03-20T07:10:59;2.90;;;2.38;;
33830;SDS011;20137;48.834;8.732;2023-03-20T07:13:26;2.85;;;2.08;;
33830;SDS011;20137;48.834;8.732;2023-03-20T07:15:52;3.90;;;2.15;;
33830;SDS011;20137;48.834;8.732;2023-03-20T07:18:18;3.70;;;2.00;;
33830;SDS011;20137;48.834;8.732;2023-03-20T07:20:44;2.78;;;2.20;;
33830;SDS011;20137;48.834;8.732;2023-03-20T07:23:10;4.28;;;2.08;;
33830;SDS011;20137;48.834;8.732;2023-03-20T07:25:36;5.22;;;2.08;;
33830;SDS011;20137;48.834;8.732;2023-03-20T07:28:02;5.45;;;2.70;;
33830;SDS011;20137;48.834;8.732;2023-03-20T07:30:29;5.85;;;2.75;;
33830;SDS011;20137;48.834;8.732;2023-03-20T07:32:56;5.00;;;2.60;;
33830;SDS011;20137;48.834;8.732;2023-03-20T07:35:22;3.72;;;2.70;;
33830;SDS011;20137;48.834;8.732;2023-03-20T07:37:48;5.10;;;3.13;;
33830;SDS011;20137;48.834;8.732;2023-03-20T07:40:14;5.70;;;3.10;;
33830;SDS011;20137;48.834;8.732;2023-03-20T07:42:40;5.00;;;3.03;;
33830;SDS011;20137;48.834;8.732;2023-03-20T07:45:06;5.95;;;3.38;;
33830;SDS011;20137;48.834;8.732;2023-03-20T07:47:33;3.53;;;2.70;;
33830;SDS011;20137;48.834;8.732;2023-03-20T07:49:59;6.22;;;3.08;;
33830;SDS011;20137;48.834;8.732;2023-03-20T07:52:25;4.80;;;3.00;;
33830;SDS011;20137;48.834;8.732;2023-03-20T07:54:51;4.25;;;3.08;;
33830;SDS011;20137;48.834;8.732;2023-03-20T07:57:17;3.85;;;2.95;;
33830;SDS011;20137;48.834;8.732;2023-03-20T07:59:43;5.28;;;3.60;;
33830;SDS011;20137;48.834;8.732;2023-03-20T08:02:12;5.88;;;3.88;;
33830;SDS011;20137;48.834;8.732;2023-03-20T08:04:39;6.10;;;3.90;;
33830;SDS011;20137;48.834;8.732;2023-03-20T08:07:05;6.53;;;4.30;;
33830;SDS011;20137;48.834;8.732;2023-03-20T08:09:31;6.60;;;4.40;;
33830;SDS011;20137;48.834;8.732;2023-03-20T08:11:57;8.93;;;4.35;;
33830;SDS011;20137;48.834;8.732;2023-03-20T08:14:22;5.70;;;3.80;;
33830;SDS011;20137;48.834;8.732;2023-03-20T08:16:48;6.18;;;4.05;;
33830;SDS011;20137;48.834;8.732;2023-03-20T08:19:14;5.95;;;4.13;;
33830;SDS011;20137;48.834;8.732;2023-03-20T08:21:40;5.65;;;3.70;;
33830;SDS011;20137;48.834;8.732;2023-03-20T08:24:06;7.90;;;4.30;;
33830;SDS011;20137;48.834;8.732;2023-03-20T08:26:32;9.02;;;4.93;;
33830;SDS011;20137;48.834;8.732;2023-03-20T08:28:58;6.80;;;4.60;;
33830;SDS011;20137;48.834;8.732;2023-03-20T08:31:24;8.48;;;4.53;;
33830;SDS011;20137;48.834;8.732;2023-03-20T08:33:50;8.00;;;5.07;;
33830;SDS011;20137;48.834;8.732;2023-03-20T08:36:16;6.18;;;4.18;;
33830;SDS011;20137;48.834;8.732;2023-03-20T08:38:44;7.55;;;4.45;;
33830;SDS011;20137;48.834;8.732;2023-03-20T08:41:11;6.70;;;4.30;;
33830;SDS011;20137;48.834;8.732;2023-03-20T08:43:36;5.68;;;4.15;;
33830;SDS011;20137;48.834;8.732;2023-03-20T08:46:03;7.57;;;4.30;;
33830;SDS011;20137;48.834;8.732;2023-03-20T08:48:29;7.30;;;4.57;;
33830;SDS011;20137;48.834;8.732;2023-03-20T08:50:55;9.75;;;5.20;;
33830;SDS011;20137;48.834;8.732;2023-03-20T08:53:20;7.22;;;4.55;;
33830;SDS011;20137;48.834;8.732;2023-03-20T08:55:47;7.03;;;4.47;;
33830;SDS011;20137;48.834;8.732;2023-03-20T08:58:14;9.05;;;4.22;;
33830;SDS011;20137;48.834;8.732;2023-03-20T09:00:40;5.57;;;3.53;;
33830;SDS011;20137;48.834;8.732;2023-03-20T09:03:06;5.65;;;4.07;;
33830;SDS011;20137;48.834;8.732;2023-03-20T09:05:37;6.68;;;4.20;;
33830;SDS011;20137;48.834;8.732;2023-03-20T09:08:03;6.95;;;4.53;;
33830;SDS011;20137;48.834;8.732;2023-03-20T09:10:29;5.35;;;3.53;;
33830;SDS011;20137;48.834;8.732;2023-03-20T09:12:55;7.60;;;3.85;;
33830;SDS011;20137;48.834;8.732;2023-03-20T09:15:20;6.68;;;3.58;;
33830;SDS011;20137;48.834;8.732;2023-03-20T09:17:46;6.72;;;3.70;;
33830;SDS011;20137;48.834;8.732;2023-03-20T09:20:12;6.47;;;4.22;;
33830;SDS011;20137;48.834;8.732;2023-03-20T09:22:37;5.28;;;3.83;;
33830;SDS011;20137;48.834;8.732;2023-03-20T09:25:05;6.35;;;4.18;;
33830;SDS011;20137;48.834;8.732;2023-03-20T09:27:32;6.13;;;3.70;;
33830;SDS011;20137;48.834;8.732;2023-03-20T09:29:57;6.47;;;3.90;;
33830;SDS011;20137;48.834;8.732;2023-03-20T09:32:23;6.30;;;4.03;;
33830;SDS011;20137;48.834;8.732;2023-03-20T09:34:48;6.03;;;3.58;;
33830;SDS011;20137;48.834;8.732;2023-03-20T09:37:14;5.45;;;3.70;;
33830;SDS011;20137;48.834;8.732;2023-03-20T09:39:40;5.95;;;3.10;;
33830;SDS011;20137;48.834;8.732;2023-03-20T09:42:42;5.78;;;3.80;;
33830;SDS011;20137;48.834;8.732;2023-03-20T09:48:02;6.20;;;3.38;;
33830;SDS011;20137;48.834;8.732;2023-03-20T09:51:12;5.38;;;3.40;;
33830;SDS011;20137;48.834;8.732;2023-03-20T09:54:06;7.22;;;3.50;;
33830;SDS011;20137;48.834;8.732;2023-03-20T09:56:42;6.45;;;3.80;;
33830;SDS011;20137;48.834;8.732;2023-03-20T09:59:10;7.38;;;3.63;;
33830;SDS011;20137;48.834;8.732;2023-03-20T10:01:53;9.55;;;4.30;;
33830;SDS011;20137;48.834;8.732;2023-03-20T10:04:30;5.95;;;3.50;;
33830;SDS011;20137;48.834;8.732;2023-03-20T10:06:57;7.13;;;3.47;;
33830;SDS011;20137;48.834;8.732;2023-03-20T10:09:23;5.30;;;3.70;;
33830;SDS011;20137;48.834;8.732;2023-03-20T10:17:14;4.93;;;3.70;;
33830;SDS011;20137;48.834;8.732;2023-03-20T10:19:50;5.28;;;3.58;;
33830;SDS011;20137;48.834;8.732;2023-03-20T10:22:33;9.32;;;4.03;;
33830;SDS011;20137;48.834;8.732;2023-03-20T10:27:37;8.77;;;5.13;;
33830;SDS011;20137;48.834;8.732;2023-03-20T10:30:21;6.63;;;4.60;;
33830;SDS011;20137;48.834;8.732;2023-03-20T10:35:38;7.30;;;4.00;;
33830;SDS011;20137;48.834;8.732;2023-03-20T10:41:08;6.40;;;4.15;;
33830;SDS011;20137;48.834;8.732;2023-03-20T10:43:39;7.40;;;4.80;;
33830;SDS011;20137;48.834;8.732;2023-03-20T10:46:10;8.20;;;4.07;;
33830;SDS011;20137;48.834;8.732;2023-03-20T10:48:50;7.70;;;4.60;;
33830;SDS011;20137;48.834;8.732;2023-03-20T10:51:50;6.80;;;4.35;;
33830;SDS011;20137;48.834;8.732;2023-03-20T10:56:53;8.40;;;4.40;;
33830;SDS011;20137;48.834;8.732;2023-03-20T10:59:37;7.97;;;4.80;;
33830;SDS011;20137;48.834;8.732;2023-03-20T11:02:10;5.53;;;3.55;;
33830;SDS011;20137;48.834;8.732;2023-03-20T11:04:37;8.80;;;3.97;;
33830;SDS011;20137;48.834;8.732;2023-03-20T11:12:31;7.18;;;4.68;;
33830;SDS011;20137;48.834;8.732;2023-03-20T11:17:59;6.85;;;4.38;;
33830;SDS011;20137;48.834;8.732;2023-03-20T11:20:30;5.80;;;3.58;;
33830;SDS011;20137;48.834;8.732;2023-03-20T11:23:00;5.13;;;3.30;;
33830;SDS011;20137;48.834;8.732;2023-03-20T11:25:33;6.88;;;3.60;;
33830;SDS011;20137;48.834;8.732;2023-03-20T11:31:05;6.75;;;3.67;;
33830;SDS011;20137;48.834;8.732;2023-03-20T11:33:51;6.10;;;4.07;;
33830;SDS011;20137;48.834;8.732;2023-03-20T11:36:28;5.80;;;3.60;;
33830;SDS011;20137;48.834;8.732;2023-03-20T11:39:00;5.32;;;3.60;;
33830;SDS011;20137;48.834;8.732;2023-03-20T11:41:30;5.85;;;2.97;;
33830;SDS011;20137;48.834;8.732;2023-03-20T11:43:57;7.05;;;3.58;;
33830;SDS011;20137;48.834;8.732;2023-03-20T11:46:23;4.90;;;2.97;;
33830;SDS011;20137;48.834;8.732;2023-03-20T11:49:06;4.32;;;2.92;;
33830;SDS011;20137;48.834;8.732;2023-03-20T11:51:44;5.90;;;3.28;;
33830;SDS011;20137;48.834;8.732;2023-03-20T11:54:13;4.97;;;3.17;;
33830;SDS011;20137;48.834;8.732;2023-03-20T11:56:56;6.03;;;3.05;;
33830;SDS011;20137;48.834;8.732;2023-03-20T11:59:25;6.25;;;2.97;;
33830;SDS011;20137;48.834;8.732;2023-03-20T12:02:02;4.22;;;3.03;;
33830;SDS011;20137;48.834;8.732;2023-03-20T12:04:33;5.15;;;3.08;;
33830;SDS011;20137;48.834;8.732;2023-03-20T12:07:18;4.82;;;2.55;;
33830;SDS011;20137;48.834;8.732;2023-03-20T12:10:06;4.55;;;3.15;;
33830;SDS011;20137;48.834;8.732;2023-03-20T12:12:42;4.35;;;2.72;;
33830;SDS011;20137;48.834;8.732;2023-03-20T12:17:56;2.88;;;2.13;;
33830;SDS011;20137;48.834;8.732;2023-03-20T12:26:14;3.45;;;2.08;;
33830;SDS011;20137;48.834;8.732;2023-03-20T12:31:43;3.60;;;2.20;;
33830;SDS011;20137;48.834;8.732;2023-03-20T12:34:20;5.95;;;2.40;;
33830;SDS011;20137;48.834;8.732;2023-03-20T12:36:55;4.43;;;2.58;;
33830;SDS011;20137;48.834;8.732;2023-03-20T12:39:26;4.78;;;2.22;;
33830;SDS011;20137;48.834;8.732;2023-03-20T12:44:27;3.75;;;2.30;;
33830;SDS011;20137;48.834;8.732;2023-03-20T12:49:50;3.85;;;2.20;;
33830;SDS011;20137;48.834;8.732;2023-03-20T12:55:20;2.63;;;2.03;;
33830;SDS011;20137;48.834;8.732;2023-03-20T13:03:42;4.45;;;2.22;;
33830;SDS011;20137;48.834;8.732;2023-03-20T13:06:41;2.97;;;1.90;;
33830;SDS011;20137;48.834;8.732;2023-03-20T13:15:20;2.70;;;1.77;;
33830;SDS011;20137;48.834;8.732;2023-03-20T13:17:42;3.85;;;1.98;;
33830;SDS011;20137;48.834;8.732;2023-03-20T13:23:06;4.68;;;2.50;;
33830;SDS011;20137;48.834;8.732;2023-03-20T13:31:23;3.67;;;2.50;;
33830;SDS011;20137;48.834;8.732;2023-03-20T13:39:42;4.97;;;2.78;;
33830;SDS011;20137;48.834;8.732;2023-03-20T13:42:33;5.18;;;2.40;;
33830;SDS011;20137;48.834;8.732;2023-03-20T13:45:06;3.97;;;2.40;;
33830;SDS011;20137;48.834;8.732;2023-03-20T13:47:59;3.38;;;2.10;;
33830;SDS011;20137;48.834;8.732;2023-03-20T13:55:40;4.65;;;1.95;;
33830;SDS011;20137;48.834;8.732;2023-03-20T13:58:36;5.55;;;2.72;;
33830;SDS011;20137;48.834;8.732;2023-03-20T14:03:54;5.90;;;2.67;;
33830;SDS011;20137;48.834;8.732;2023-03-20T14:08:55;5.20;;;2.60;;
33830;SDS011;20137;48.834;8.732;2023-03-20T14:16:42;5.45;;;3.08;;
33830;SDS011;20137;48.834;8.732;2023-03-20T14:19:15;5.72;;;3.35;;
33830;SDS011;20137;48.834;8.732;2023-03-20T14:21:48;5.38;;;3.25;;
33830;SDS011;20137;48.834;8.732;2023-03-20T14:24:17;6.03;;;3.50;;
33830;SDS011;20137;48.834;8.732;2023-03-20T14:26:47;5.57;;;3.40;;
33830;SDS011;20137;48.834;8.732;2023-03-20T14:29:30;5.93;;;3.65;;
33830;SDS011;20137;48.834;8.732;2023-03-20T14:34:47;3.90;;;2.90;;
33830;SDS011;20137;48.834;8.732;2023-03-20T14:37:27;7.20;;;3.40;;
33830;SDS011;20137;48.834;8.732;2023-03-20T14:53:57;7.82;;;2.97;;
33830;SDS011;20137;48.834;8.732;2023-03-20T14:56:45;3.42;;;2.53;;
33830;SDS011;20137;48.834;8.732;2023-03-20T14:59:13;5.55;;;2.80;;
33830;SDS011;20137;48.834;8.732;2023-03-20T15:01:44;4.30;;;3.05;;
33830;SDS011;20137;48.834;8.732;2023-03-20T15:04:27;4.63;;;2.30;;
33830;SDS011;20137;48.834;8.732;2023-03-20T15:07:12;4.65;;;2.88;;
33830;SDS011;20137;48.834;8.732;2023-03-20T15:09:41;3.42;;;2.47;;
33830;SDS011;20137;48.834;8.732;2023-03-20T15:12:10;4.47;;;3.20;;
33830;SDS011;20137;48.834;8.732;2023-03-20T15:14:43;4.47;;;3.00;;
33830;SDS011;20137;48.834;8.732;2023-03-20T15:17:20;4.00;;;2.70;;
33830;SDS011;20137;48.834;8.732;2023-03-20T15:20:13;4.80;;;2.95;;
33830;SDS011;20137;48.834;8.732;2023-03-20T15:22:49;7.38;;;3.10;;
33830;SDS011;20137;48.834;8.732;2023-03-20T15:25:16;6.28;;;3.20;;
33830;SDS011;20137;48.834;8.732;2023-03-20T15:27:43;6.53;;;3.05;;
33830;SDS011;20137;48.834;8.732;2023-03-20T15:30:10;4.28;;;3.00;;
33830;SDS011;20137;48.834;8.732;2023-03-20T15:32:40;6.78;;;3.53;;
33830;SDS011;20137;48.834;8.732;2023-03-20T15:35:19;6.72;;;3.40;;
33830;SDS011;20137;48.834;8.732;2023-03-20T15:37:50;5.57;;;3.28;;
33830;SDS011;20137;48.834;8.732;2023-03-20T15:40:22;5.50;;;3.22;;
33830;SDS011;20137;48.834;8.732;2023-03-20T15:42:56;8.23;;;3.63;;
33830;SDS011;20137;48.834;8.732;2023-03-20T15:45:29;5.13;;;3.13;;
33830;SDS011;20137;48.834;8.732;2023-03-20T15:48:00;4.43;;;2.90;;
33830;SDS011;20137;48.834;8.732;2023-03-20T15:50:35;5.63;;;3.63;;
33830;SDS011;20137;48.834;8.732;2023-03-20T15:53:03;5.32;;;2.83;;
33830;SDS011;20137;48.834;8.732;2023-03-20T15:55:31;4.03;;;2.83;;
33830;SDS011;20137;48.834;8.732;2023-03-20T15:57:58;4.75;;;3.22;;
33830;SDS011;20137;48.834;8.732;2023-03-20T16:00:41;4.00;;;2.90;;
33830;SDS011;20137;48.834;8.732;2023-03-20T16:03:10;6.80;;;3.13;;
33830;SDS011;20137;48.834;8.732;2023-03-20T16:05:44;4.57;;;2.92;;
33830;SDS011;20137;48.834;8.732;2023-03-20T16:08:22;5.05;;;2.67;;
33830;SDS011;20137;48.834;8.732;2023-03-20T16:10:55;3.20;;;2.50;;
33830;SDS011;20137;48.834;8.732;2023-03-20T16:13:33;6.20;;;2.88;;
33830;SDS011;20137;48.834;8.732;2023-03-20T16:16:03;5.13;;;2.65;;
33830;SDS011;20137;48.834;8.732;2023-03-20T16:18:31;5.60;;;3.20;;
33830;SDS011;20137;48.834;8.732;2023-03-20T16:21:02;4.95;;;2.80;;
33830;SDS011;20137;48.834;8.732;2023-03-20T16:23:40;6.32;;;3.13;;
33830;SDS011;20137;48.834;8.732;2023-03-20T16:26:11;4.40;;;2.63;;
33830;SDS011;20137;48.834;8.732;2023-03-20T16:28:48;4.93;;;2.72;;
33830;SDS011;20137;48.834;8.732;2023-03-20T16:31:16;5.63;;;3.13;;
33830;SDS011;20137;48.834;8.732;2023-03-20T16:33:57;4.28;;;2.95;;
33830;SDS011;20137;48.834;8.732;2023-03-20T16:36:28;4.63;;;2.65;;
33830;SDS011;20137;48.834;8.732;2023-03-20T16:38:57;5.43;;;3.05;;
33830;SDS011;20137;48.834;8.732;2023-03-20T16:41:28;5.18;;;2.83;;
33830;SDS011;20137;48.834;8.732;2023-03-20T16:43:57;4.45;;;3.40;;
33830;SDS011;20137;48.834;8.732;2023-03-20T16:46:24;4.60;;;3.38;;
33830;SDS011;20137;48.834;8.732;2023-03-20T16:48:52;4.88;;;3.35;;
33830;SDS011;20137;48.834;8.732;2023-03-20T16:51:25;7.78;;;5.53;;
33830;SDS011;20137;48.834;8.732;2023-03-20T16:53:57;11.10;;;5.07;;
33830;SDS011;20137;48.834;8.732;2023-03-20T16:56:32;6.40;;;4.10;;
33830;SDS011;20137;48.834;8.732;2023-03-20T16:59:07;7.05;;;3.90;;
33830;SDS011;20137;48.834;8.732;2023-03-20T17:01:34;6.75;;;3.92;;
33830;SDS011;20137;48.834;8.732;2023-03-20T17:06:46;4.57;;;3.08;;
33830;SDS011;20137;48.834;8.732;2023-03-20T17:09:26;6.03;;;3.08;;
33830;SDS011;20137;48.834;8.732;2023-03-20T17:12:01;3.50;;;2.45;;
33830;SDS011;20137;48.834;8.732;2023-03-20T17:14:35;5.35;;;2.60;;
33830;SDS011;20137;48.834;8.732;2023-03-20T17:17:01;4.25;;;2.63;;
33830;SDS011;20137;48.834;8.732;2023-03-20T17:19:26;6.53;;;2.80;;
33830;SDS011;20137;48.834;8.732;2023-03-20T17:21:52;4.35;;;2.65;;
33830;SDS011;20137;48.834;8.732;2023-03-20T17:24:18;5.03;;;2.75;;
33830;SDS011;20137;48.834;8.732;2023-03-20T17:26:53;6.95;;;2.60;;
33830;SDS011;20137;48.834;8.732;2023-03-20T17:29:20;5.18;;;3.15;;
33830;SDS011;20137;48.834;8.732;2023-03-20T17:31:45;4.28;;;2.60;;
33830;SDS011;20137;48.834;8.732;2023-03-20T17:34:11;5.18;;;2.70;;
33830;SDS011;20137;48.834;8.732;2023-03-20T17:36:38;6.60;;;3.35;;
33830;SDS011;20137;48.834;8.732;2023-03-20T17:39:04;5.78;;;3.33;;
33830;SDS011;20137;48.834;8.732;2023-03-20T17:41:30;6.53;;;3.40;;
33830;SDS011;20137;48.834;8.732;2023-03-20T17:43:58;5.43;;;3.30;;
33830;SDS011;20137;48.834;8.732;2023-03-20T17:46:26;6.90;;;3.38;;
33830;SDS011;20137;48.834;8.732;2023-03-20T17:48:57;4.50;;;2.72;;